YBDV

Details ICAO YBDV (BVI)
Name Birdsville
Region Australia
Timezone Australia/Brisbane (UTC+10.0)
Plans Departing 20
Arriving 16
Stats Elevation 157 ft / 48 m (AMSL)
Location -25.895770° 139.346033°
Runways 2
Magnetic Variation 6.495° E
Sunrise 2017-12-12 19:46:03 UTC / 2017-12-13 05:46:03 Local
Sunset 2017-12-13 09:30:04 UTC / 2017-12-13 19:30:04 Local
Advertisement - Login to hide

Runways

ID Width Length Bearing (true) Bearing (mag) Surface Threshold Offset Overrun Length
03 131 ft / 40 m 4,143 ft / 1,263 m 39.62° 33.13° Dirt 0 ft / 0 m 0 ft / 0 m
14 98 ft / 30 m 5,696 ft / 1,736 m 148.89° 142.40° Asphalt 0 ft / 0 m 0 ft / 0 m
21 131 ft / 40 m 4,143 ft / 1,263 m 219.62° 213.13° Dirt 0 ft / 0 m 0 ft / 0 m
32 98 ft / 30 m 5,696 ft / 1,736 m 328.89° 322.40° Asphalt 0 ft / 0 m 0 ft / 0 m

Map

Weather


0- 5 10 15 20 25 30 35+ Temperature / ° C

Clouds and Precipitation
Forecast for 2017-12-13 06:00 UTC. Updated 24 minutes ago

Ground ~20,000 ft ~40,000 ft Winds

METAR

YBDV 130100Z AUTO 35017G27KT //// // ////// 41/07 Q1008

TAF

Not found

Frequencies

Unicom 126.70 MHz CTAF
Warning: Do not use this data for real-world aviation or navigation. No guarantee of current accuracy is given.